Time;durP1;ratioP1;P1;durP2;ratioP2;P2;SDS_P1;SDS_P2;PMS_P1;PMS_P2;Temp;Humidity;BMP_temperature;BMP_pressure;BME280_temperature;BME280_humidity;BME280_pressure;Samples;Min_cycle;Max_cycle;Signal;HPM_P1;HPM_P2
2022/12/12 00:01:22;;;;;;;14.32;9.45;;;-2.20;99.90;;;;;;5014572;28;20696;-68
2022/12/12 00:03:49;;;;;;;14.02;6.78;;;-2.20;99.90;;;;;;5015038;28;20210;-68
2022/12/12 00:06:16;;;;;;;12.57;8.13;;;-2.20;99.90;;;;;;5014667;28;20206;-68
2022/12/12 00:08:44;;;;;;;19.83;9.60;;;-2.30;99.90;;;;;;5015230;28;20254;-67
2022/12/12 00:11:11;;;;;;;17.55;9.55;;;-2.30;99.90;;;;;;5014387;28;20587;-68
2022/12/12 00:13:38;;;;;;;20.20;9.52;;;-2.40;99.90;;;;;;5014854;28;20210;-68
2022/12/12 00:16:06;;;;;;;10.07;6.80;;;-2.40;99.90;;;;;;5014473;28;20223;-69
2022/12/12 00:18:35;;;;;;;12.95;8.70;;;-2.50;99.90;;;;;;5014900;28;20223;-67
2022/12/12 00:21:03;;;;;;;15.90;8.57;;;-2.50;99.90;;;;;;5013625;28;20206;-68
2022/12/12 00:23:30;;;;;;;15.27;9.05;;;-2.50;99.90;;;;;;5014495;28;20206;-68
2022/12/12 00:26:01;;;;;;;19.30;8.85;;;-2.60;99.90;;;;;;5014901;28;20225;-67
2022/12/12 00:28:28;;;;;;;15.65;8.68;;;-2.60;99.90;;;;;;5014284;28;20748;-67
2022/12/12 00:30:55;;;;;;;15.32;8.10;;;-2.60;99.90;;;;;;5026021;23;20199;-60
2022/12/12 00:33:22;;;;;;;14.55;7.60;;;-2.70;99.90;;;;;;4992137;28;20218;-62
2022/12/12 00:35:50;;;;;;;13.23;7.43;;;-2.80;99.90;;;;;;4991895;28;20576;-64
2022/12/12 00:38:17;;;;;;;12.88;6.85;;;-2.80;99.90;;;;;;4991996;28;20234;-63
2022/12/12 00:40:44;;;;;;;14.50;6.65;;;-2.80;99.90;;;;;;4991611;28;20208;-63
2022/12/12 00:43:12;;;;;;;19.20;8.23;;;-2.80;99.90;;;;;;4992407;28;20207;-63
2022/12/12 00:45:40;;;;;;;14.13;7.10;;;-2.80;99.90;;;;;;4992654;28;20199;-63
2022/12/12 00:48:07;;;;;;;17.85;8.35;;;-2.80;99.90;;;;;;4992159;28;20227;-62
2022/12/12 00:50:34;;;;;;;16.25;8.20;;;-2.80;99.90;;;;;;4991911;28;20212;-62
2022/12/12 00:53:01;;;;;;;15.52;7.43;;;-2.80;99.90;;;;;;4992206;28;20675;-63
2022/12/12 00:55:28;;;;;;;13.60;7.70;;;-2.80;99.90;;;;;;4992386;28;20278;-62
2022/12/12 00:57:55;;;;;;;17.50;9.00;;;-2.80;99.90;;;;;;4992268;28;20234;-62
2022/12/12 01:00:23;;;;;;;14.02;7.85;;;-2.80;99.90;;;;;;4992024;28;20230;-62
2022/12/12 01:02:50;;;;;;;15.90;9.20;;;-2.80;99.90;;;;;;4992261;28;20699;-63
2022/12/12 01:05:17;;;;;;;15.52;8.55;;;-2.80;99.90;;;;;;4992135;28;20203;-62
2022/12/12 01:07:44;;;;;;;13.43;6.63;;;-2.80;99.90;;;;;;4992328;28;20223;-63
2022/12/12 01:10:11;;;;;;;14.93;9.13;;;-2.80;99.90;;;;;;4991724;28;20204;-63
2022/12/12 01:12:37;;;;;;;18.48;7.50;;;-2.80;99.90;;;;;;4991542;28;20231;-63
2022/12/12 01:15:07;;;;;;;12.10;7.05;;;-2.90;99.90;;;;;;4991668;28;20224;-63
2022/12/12 01:17:37;;;;;;;16.38;8.20;;;-3.00;99.90;;;;;;4991833;28;20227;-63
2022/12/12 01:20:06;;;;;;;15.45;8.63;;;-3.00;99.90;;;;;;4991510;28;20208;-62
2022/12/12 01:22:33;;;;;;;14.90;8.27;;;-3.00;99.90;;;;;;4991424;28;20207;-63
2022/12/12 01:24:59;;;;;;;17.50;7.22;;;-3.10;99.90;;;;;;4991672;28;20250;-63
2022/12/12 01:27:26;;;;;;;16.90;7.63;;;-3.10;99.90;;;;;;4991816;28;20234;-62
2022/12/12 01:29:54;;;;;;;9.88;7.07;;;-3.10;99.90;;;;;;4991462;28;20200;-63
2022/12/12 01:32:25;;;;;;;10.65;7.07;;;-3.10;99.90;;;;;;4990931;28;20302;-63
2022/12/12 01:34:54;;;;;;;14.68;6.80;;;-3.20;99.90;;;;;;4990655;28;20222;-63
2022/12/12 01:37:21;;;;;;;10.73;7.03;;;-3.30;99.90;;;;;;4991561;28;20239;-62
2022/12/12 01:39:48;;;;;;;14.55;8.05;;;-3.30;99.90;;;;;;4991347;28;20210;-62
2022/12/12 01:42:17;;;;;;;13.88;6.35;;;-3.40;99.90;;;;;;4990986;28;20682;-63
2022/12/12 01:44:46;;;;;;;12.73;6.65;;;-3.40;99.90;;;;;;4991503;28;20208;-63
2022/12/12 01:47:14;;;;;;;14.27;6.05;;;-3.50;99.90;;;;;;4990665;28;20231;-63
2022/12/12 01:49:44;;;;;;;13.38;6.55;;;-3.50;99.90;;;;;;4991289;28;20288;-63
2022/12/12 01:52:15;;;;;;;12.65;7.40;;;-3.50;99.90;;;;;;4990716;28;20207;-62
2022/12/12 01:54:45;;;;;;;12.82;8.23;;;-3.60;99.90;;;;;;4991061;28;20207;-63
2022/12/12 01:57:16;;;;;;;15.85;7.00;;;-3.70;99.90;;;;;;4991115;28;20613;-63
2022/12/12 01:59:45;;;;;;;13.13;6.82;;;-3.80;99.90;;;;;;4991095;28;20211;-63
2022/12/12 02:02:12;;;;;;;10.45;6.53;;;-3.90;99.90;;;;;;4990838;28;20199;-63
2022/12/12 02:04:39;;;;;;;10.60;6.50;;;-3.90;99.90;;;;;;4991087;28;20273;-63
2022/12/12 02:07:06;;;;;;;10.00;6.72;;;-3.90;99.90;;;;;;4991224;28;20596;-63
2022/12/12 02:09:35;;;;;;;12.45;6.80;;;-3.90;99.90;;;;;;4990546;28;20200;-63
2022/12/12 02:12:02;;;;;;;12.90;7.57;;;-4.00;99.90;;;;;;4990598;28;20611;-62
2022/12/12 02:14:32;;;;;;;10.98;6.40;;;-4.00;99.90;;;;;;4990965;28;20218;-62
2022/12/12 02:17:22;;;;;;;9.38;5.85;;;-4.00;99.90;;;;;;4991132;28;20259;-62
2022/12/12 02:20:31;;;;;;;12.13;5.93;;;-4.00;99.90;;;;;;4990912;28;20208;-62
2022/12/12 02:23:40;;;;;;;12.55;6.90;;;-4.10;99.90;;;;;;4991187;28;20603;-62
2022/12/12 02:26:46;;;;;;;10.48;5.85;;;-4.20;99.90;;;;;;4961845;28;20234;-63
2022/12/12 02:29:48;;;;;;;8.63;6.50;;;-4.20;99.90;;;;;;4930686;29;20597;-62
2022/12/12 02:32:26;;;;;;;9.15;5.35;;;-4.20;99.90;;;;;;4990179;28;20697;-59
2022/12/12 02:35:02;;;;;;;11.77;5.75;;;-4.30;99.90;;;;;;4990979;28;20202;-63
2022/12/12 02:37:36;;;;;;;10.25;5.40;;;-4.30;99.90;;;;;;4990731;28;20231;-63
2022/12/12 02:40:12;;;;;;;11.35;5.97;;;-4.40;99.90;;;;;;4990506;28;20210;-63
2022/12/12 02:42:44;;;;;;;13.40;7.97;;;-4.40;99.90;;;;;;4990621;28;20578;-62
2022/12/12 02:45:17;;;;;;;10.05;4.57;;;-4.50;99.90;;;;;;4990961;28;20203;-63
2022/12/12 02:47:51;;;;;;;10.23;5.15;;;-4.50;99.90;;;;;;4990648;28;20223;-62
2022/12/12 02:50:22;;;;;;;10.45;5.68;;;-4.60;99.90;;;;;;4990568;28;20203;-62
2022/12/12 02:52:49;;;;;;;11.52;5.47;;;-4.60;99.90;;;;;;4990628;28;20209;-63
2022/12/12 02:55:16;;;;;;;10.30;7.55;;;-4.60;99.90;;;;;;4990744;28;20231;-63
2022/12/12 02:57:43;;;;;;;10.85;5.82;;;-4.60;99.90;;;;;;4990573;28;20230;-62
2022/12/12 03:00:12;;;;;;;9.93;4.72;;;-4.70;99.90;;;;;;4993268;28;20208;-63
2022/12/12 03:08:56;;;;;;;8.93;5.25;;;-4.70;99.90;;;;;;4994207;28;20235;-63
2022/12/12 03:11:36;;;;;;;7.80;4.63;;;-4.80;99.90;;;;;;4993570;28;20213;-63
2022/12/12 03:14:10;;;;;;;6.97;6.30;;;-4.90;99.90;;;;;;4994023;28;20592;-63
2022/12/12 03:16:42;;;;;;;16.40;7.88;;;-4.90;99.90;;;;;;4994065;28;20235;-63
2022/12/12 03:19:17;;;;;;;8.45;5.72;;;-5.00;99.90;;;;;;4993938;28;20245;-63
2022/12/12 03:21:49;;;;;;;7.75;4.75;;;-5.00;99.90;;;;;;4993424;28;20198;-63
2022/12/12 03:24:23;;;;;;;12.75;6.32;;;-5.00;99.90;;;;;;4994044;28;20206;-63
2022/12/12 03:26:55;;;;;;;11.73;6.07;;;-5.10;99.90;;;;;;4993808;28;20233;-63
2022/12/12 03:29:27;;;;;;;10.85;5.15;;;-5.10;99.90;;;;;;4993822;28;20202;-63
2022/12/12 03:31:59;;;;;;;8.98;5.30;;;-5.10;99.90;;;;;;4993180;28;20212;-63
2022/12/12 03:34:35;;;;;;;9.50;5.15;;;-5.10;99.90;;;;;;4993880;28;20576;-63
2022/12/12 03:37:07;;;;;;;9.35;6.15;;;-5.20;99.90;;;;;;4993480;28;20230;-63
2022/12/12 03:39:40;;;;;;;10.38;6.10;;;-5.10;99.90;;;;;;4993749;28;20203;-63
2022/12/12 03:42:11;;;;;;;10.80;5.90;;;-5.20;99.90;;;;;;4993078;28;20210;-63
2022/12/12 03:44:43;;;;;;;6.78;5.28;;;-5.20;99.90;;;;;;4993667;28;20207;-63
2022/12/12 03:47:13;;;;;;;11.32;6.22;;;-5.20;99.90;;;;;;4993053;28;20695;-63
2022/12/12 03:49:46;;;;;;;12.55;6.15;;;-5.30;99.90;;;;;;4993313;28;20300;-62
2022/12/12 03:52:19;;;;;;;12.60;6.25;;;-5.30;99.90;;;;;;4992953;28;20204;-62
2022/12/12 03:54:52;;;;;;;9.30;5.60;;;-5.40;99.90;;;;;;4993300;28;20217;-62
2022/12/12 03:57:24;;;;;;;9.13;6.07;;;-5.40;99.90;;;;;;4993262;28;20236;-63
2022/12/12 03:59:54;;;;;;;12.23;5.63;;;-5.50;99.90;;;;;;4993204;28;20681;-62
2022/12/12 04:02:26;;;;;;;10.75;4.95;;;-5.50;99.90;;;;;;4992745;28;20205;-62
2022/12/12 04:05:01;;;;;;;13.63;5.95;;;-5.50;99.90;;;;;;4993162;28;20234;-61
2022/12/12 04:07:33;;;;;;;8.40;5.30;;;-5.60;99.90;;;;;;4993274;28;20223;-63
2022/12/12 04:12:58;;;;;;;11.77;6.25;;;-5.50;99.90;;;;;;4992816;28;20250;-63
2022/12/12 04:15:48;;;;;;;13.32;5.93;;;-5.60;99.90;;;;;;4993043;28;20209;-63
2022/12/12 04:18:23;;;;;;;8.35;5.25;;;-5.50;99.90;;;;;;4993038;28;20227;-62
2022/12/12 04:23:53;;;;;;;15.55;6.93;;;-5.50;99.90;;;;;;4992801;28;20214;-62
2022/12/12 04:26:40;;;;;;;13.98;6.40;;;-5.50;99.90;;;;;;4992757;28;20199;-61
2022/12/12 04:29:19;;;;;;;11.52;6.28;;;-5.60;99.90;;;;;;4992627;28;20262;-63
2022/12/12 04:31:51;;;;;;;9.63;5.57;;;-5.50;99.90;;;;;;4991920;28;20225;-62
2022/12/12 04:34:24;;;;;;;13.48;6.88;;;-5.60;99.90;;;;;;4992760;28;20685;-61
2022/12/12 04:36:53;;;;;;;10.82;5.80;;;-5.60;99.90;;;;;;4992135;28;20260;-62
2022/12/12 04:39:21;;;;;;;12.88;6.13;;;-5.60;99.90;;;;;;4992420;28;20218;-63
2022/12/12 04:41:50;;;;;;;12.23;6.05;;;-5.60;99.90;;;;;;4991961;28;20199;-63
2022/12/12 04:44:19;;;;;;;11.57;6.72;;;-5.60;99.90;;;;;;4992589;28;20199;-62
2022/12/12 04:46:50;;;;;;;15.93;8.23;;;-5.50;99.90;;;;;;4992156;28;20233;-62
2022/12/12 04:49:20;;;;;;;13.13;7.88;;;-5.50;99.90;;;;;;4992512;28;20207;-63
2022/12/12 04:51:51;;;;;;;12.48;7.95;;;-5.50;99.90;;;;;;4991832;28;20203;-63
2022/12/12 04:54:24;;;;;;;10.52;7.20;;;-5.50;99.90;;;;;;4992549;28;20206;-62
2022/12/12 04:56:56;;;;;;;13.98;6.47;;;-5.40;99.90;;;;;;4991912;28;20230;-63
2022/12/12 04:59:23;;;;;;;16.63;8.25;;;-5.40;99.90;;;;;;4992130;28;20218;-62
2022/12/12 05:01:56;;;;;;;17.35;7.35;;;-5.40;99.90;;;;;;4991335;28;20306;-62
2022/12/12 05:04:29;;;;;;;10.70;6.70;;;-5.30;99.90;;;;;;4992368;28;20200;-64
2022/12/12 05:07:00;;;;;;;15.30;7.20;;;-5.30;99.90;;;;;;4991855;28;20230;-62
2022/12/12 05:09:28;;;;;;;12.73;7.07;;;-5.20;99.90;;;;;;4992031;28;20199;-63
2022/12/12 05:11:55;;;;;;;15.25;7.75;;;-5.20;99.90;;;;;;4991363;28;20207;-62
2022/12/12 05:14:22;;;;;;;11.25;7.97;;;-5.10;99.90;;;;;;4992086;28;20551;-61
2022/12/12 05:16:52;;;;;;;13.73;8.50;;;-5.00;99.90;;;;;;4991779;28;20231;-64
2022/12/12 05:19:19;;;;;;;13.55;7.75;;;-4.90;99.90;;;;;;4992042;28;20208;-62
2022/12/12 05:21:46;;;;;;;12.13;7.22;;;-4.90;99.90;;;;;;4990975;28;20210;-62
2022/12/12 05:24:13;;;;;;;13.18;7.40;;;-4.80;99.90;;;;;;4991635;28;20578;-63
2022/12/12 05:26:41;;;;;;;12.88;6.82;;;-4.70;99.90;;;;;;4991701;28;20227;-62
2022/12/12 05:29:08;;;;;;;15.63;8.40;;;-4.60;99.90;;;;;;4991422;28;20206;-62
2022/12/12 05:31:35;;;;;;;15.88;8.70;;;-4.50;99.90;;;;;;4991317;28;20215;-62
2022/12/12 05:34:02;;;;;;;17.42;8.93;;;-4.50;99.90;;;;;;4991533;28;20214;-63
2022/12/12 05:36:29;;;;;;;19.45;8.95;;;-4.50;99.90;;;;;;4991532;28;20819;-62
2022/12/12 05:38:55;;;;;;;15.80;8.05;;;-4.40;99.90;;;;;;4991471;28;20214;-62
2022/12/12 05:41:22;;;;;;;16.17;9.85;;;-4.40;99.90;;;;;;4991033;28;20294;-63
2022/12/12 05:43:51;;;;;;;17.70;8.82;;;-4.40;99.90;;;;;;4991635;28;20245;-63
2022/12/12 05:46:17;;;;;;;19.00;8.55;;;-4.30;99.90;;;;;;4991325;28;20195;-62
2022/12/12 05:48:49;;;;;;;16.30;8.07;;;-4.30;99.90;;;;;;4991394;28;20215;-63
2022/12/12 05:51:16;;;;;;;17.42;9.48;;;-4.20;99.90;;;;;;4990629;28;20215;-62
2022/12/12 05:53:42;;;;;;;14.65;6.60;;;-4.20;99.90;;;;;;4991398;28;20675;-63
2022/12/12 05:56:10;;;;;;;19.10;8.68;;;-4.20;99.90;;;;;;4991222;28;20315;-63
2022/12/12 05:58:37;;;;;;;16.80;9.77;;;-4.20;99.90;;;;;;4991331;28;20269;-62
2022/12/12 06:01:06;;;;;;;18.10;9.23;;;-4.20;99.90;;;;;;4990269;28;20199;-63
2022/12/12 06:03:33;;;;;;;14.18;7.82;;;-4.20;99.90;;;;;;4991280;28;20199;-62
2022/12/12 06:06:00;;;;;;;12.15;7.47;;;-4.20;99.90;;;;;;4991056;28;20211;-63
2022/12/12 06:08:26;;;;;;;13.45;7.10;;;-4.20;99.90;;;;;;4991276;28;20237;-62
2022/12/12 06:10:54;;;;;;;12.10;7.47;;;-4.20;99.90;;;;;;4990557;28;20578;-62
2022/12/12 06:13:21;;;;;;;16.35;8.35;;;-4.10;99.90;;;;;;4989799;28;20207;-64
2022/12/12 06:15:48;;;;;;;13.50;6.60;;;-4.10;99.90;;;;;;4990909;28;20721;-61
2022/12/12 06:18:16;;;;;;;12.43;7.07;;;-4.10;99.90;;;;;;4990813;28;20778;-62
2022/12/12 06:20:43;;;;;;;18.77;8.98;;;-4.10;99.90;;;;;;4987636;28;20199;-62
2022/12/12 06:23:09;;;;;;;9.45;7.43;;;-4.00;99.90;;;;;;4988428;28;20226;-62
2022/12/12 06:25:36;;;;;;;11.77;7.05;;;-4.00;99.90;;;;;;4990047;28;20202;-62
2022/12/12 06:28:03;;;;;;;23.17;8.45;;;-4.10;99.90;;;;;;4988741;28;20215;-62
2022/12/12 06:30:30;;;;;;;9.30;8.40;;;-4.10;99.90;;;;;;4989795;28;20214;-62
2022/12/12 06:32:57;;;;;;;10.75;7.25;;;-4.10;99.90;;;;;;5055426;23;20235;-67
2022/12/12 06:35:25;;;;;;;12.60;7.95;;;-4.20;99.90;;;;;;5005164;28;20584;-67
2022/12/12 06:37:52;;;;;;;12.30;7.90;;;-4.20;99.90;;;;;;5014420;28;20611;-68
2022/12/12 06:40:18;;;;;;;15.80;8.45;;;-4.10;99.90;;;;;;5014315;28;20687;-67
2022/12/12 06:42:45;;;;;;;25.55;15.00;;;-4.10;99.90;;;;;;5013304;28;20950;-67
2022/12/12 06:45:12;;;;;;;14.18;9.00;;;-4.10;99.90;;;;;;5014421;28;20206;-66
2022/12/12 06:47:39;;;;;;;14.73;8.10;;;-4.00;99.90;;;;;;5014263;28;20218;-66
2022/12/12 06:50:06;;;;;;;16.15;9.60;;;-3.90;99.90;;;;;;5014085;28;20210;-66
2022/12/12 06:52:34;;;;;;;18.73;8.77;;;-3.90;99.90;;;;;;5013666;28;20569;-66
2022/12/12 06:55:01;;;;;;;10.75;7.40;;;-4.00;99.90;;;;;;5014151;28;20667;-66
2022/12/12 06:57:27;;;;;;;13.88;8.18;;;-3.90;99.90;;;;;;5013880;28;20231;-66
2022/12/12 06:59:55;;;;;;;11.98;7.57;;;-3.90;99.90;;;;;;5014032;28;20250;-66
2022/12/12 07:02:21;;;;;;;14.63;9.27;;;-3.90;99.90;;;;;;5013364;28;20199;-66
2022/12/12 07:04:48;;;;;;;14.00;8.20;;;-3.90;99.90;;;;;;5014128;28;20206;-66
2022/12/12 07:07:15;;;;;;;15.48;7.20;;;-4.00;99.90;;;;;;5013985;28;20713;-66
2022/12/12 07:09:45;;;;;;;15.57;8.60;;;-4.00;99.90;;;;;;5014018;28;20207;-66
2022/12/12 07:12:11;;;;;;;14.65;7.93;;;-4.00;99.90;;;;;;5013365;28;20241;-66
2022/12/12 07:14:38;;;;;;;13.05;8.90;;;-3.90;99.90;;;;;;5013816;28;20198;-66
2022/12/12 07:17:05;;;;;;;12.65;7.47;;;-3.90;99.90;;;;;;5013525;28;20228;-66
2022/12/12 07:19:32;;;;;;;12.60;7.10;;;-3.90;99.90;;;;;;5013530;28;20206;-66
2022/12/12 07:21:59;;;;;;;11.95;7.82;;;-3.90;99.90;;;;;;5013206;28;20217;-66
2022/12/12 07:24:26;;;;;;;16.55;8.77;;;-3.90;99.90;;;;;;5013560;28;20214;-66
2022/12/12 07:26:54;;;;;;;16.23;10.15;;;-3.90;99.90;;;;;;5013716;28;20218;-66
2022/12/12 07:29:20;;;;;;;13.95;7.65;;;-3.90;99.90;;;;;;5013628;28;20206;-66
2022/12/12 07:31:47;;;;;;;16.02;8.27;;;-3.90;99.90;;;;;;5013759;28;20671;-66
2022/12/12 07:36:42;;;;;;;11.57;8.60;;;-3.90;99.90;;;;;;4998851;28;20323;-66
2022/12/12 07:39:08;;;;;;;13.55;8.10;;;-3.90;99.90;;;;;;4997179;28;20208;-66
2022/12/12 07:41:35;;;;;;;11.18;6.25;;;-3.90;99.90;;;;;;4996665;28;20203;-66
2022/12/12 07:44:04;;;;;;;12.20;8.32;;;-3.90;99.90;;;;;;4996498;28;20226;-66
2022/12/12 07:46:31;;;;;;;13.65;7.53;;;-3.80;99.90;;;;;;4995829;28;20683;-66
2022/12/12 07:49:00;;;;;;;11.98;6.80;;;-3.80;99.90;;;;;;4996703;28;20710;-66
2022/12/12 07:51:30;;;;;;;15.18;8.32;;;-3.80;99.90;;;;;;4994666;28;20643;-66
2022/12/12 07:56:25;;;;;;;19.33;6.82;;;-3.80;99.90;;;;;;4972516;28;20220;-66
2022/12/12 07:58:54;;;;;;;16.52;9.35;;;-3.80;99.90;;;;;;4974194;28;20691;-66
2022/12/12 08:01:24;;;;;;;15.15;8.20;;;-3.80;99.90;;;;;;4973546;28;20675;-67
2022/12/12 08:03:51;;;;;;;7.95;6.82;;;-3.80;99.90;;;;;;4974355;28;20580;-66
2022/12/12 08:06:19;;;;;;;13.23;7.85;;;-3.70;99.90;;;;;;4974198;28;20647;-67
2022/12/12 08:08:47;;;;;;;11.63;6.63;;;-3.70;99.90;;;;;;4974186;28;20205;-66
2022/12/12 08:11:18;;;;;;;14.40;10.68;;;-3.60;99.90;;;;;;4973725;28;20205;-66
2022/12/12 08:13:45;;;;;;;10.13;8.00;;;-3.50;99.90;;;;;;4974314;28;20204;-66
2022/12/12 08:16:14;;;;;;;18.90;9.48;;;-3.50;99.90;;;;;;4973903;28;20581;-66
2022/12/12 08:18:43;;;;;;;18.85;8.82;;;-3.50;99.90;;;;;;4974396;28;20243;-66
2022/12/12 08:21:11;;;;;;;11.65;8.05;;;-3.60;99.90;;;;;;4973411;28;20222;-67
2022/12/12 08:23:38;;;;;;;14.02;7.72;;;-3.60;99.90;;;;;;4972252;28;20204;-67
2022/12/12 08:26:05;;;;;;;9.60;6.07;;;-3.60;99.90;;;;;;4973016;28;20204;-66
2022/12/12 08:28:32;;;;;;;13.82;8.70;;;-3.50;99.90;;;;;;4973112;28;20596;-66
2022/12/12 08:30:59;;;;;;;24.23;10.85;;;-3.40;99.90;;;;;;4972839;28;20797;-66
2022/12/12 08:33:27;;;;;;;15.77;9.80;;;-3.30;99.90;;;;;;4974329;28;20298;-66
2022/12/12 08:35:55;;;;;;;13.93;7.50;;;-3.20;99.90;;;;;;4973734;28;20211;-66
2022/12/12 08:38:22;;;;;;;11.88;7.40;;;-3.20;99.90;;;;;;4973681;28;20287;-66
2022/12/12 08:40:48;;;;;;;12.75;7.28;;;-3.10;99.90;;;;;;4973503;28;20208;-66
2022/12/12 08:43:15;;;;;;;10.48;8.15;;;-3.00;99.90;;;;;;4972763;28;20552;-66
2022/12/12 08:45:42;;;;;;;10.18;6.88;;;-2.90;99.90;;;;;;4972741;28;20235;-66
2022/12/12 08:48:11;;;;;;;15.20;8.50;;;-2.80;99.90;;;;;;4973529;28;20224;-66
2022/12/12 08:50:40;;;;;;;18.33;7.65;;;-2.60;99.90;;;;;;4973368;28;20212;-66
2022/12/12 08:53:09;;;;;;;12.23;8.40;;;-2.40;99.90;;;;;;4972612;28;20236;-66
2022/12/12 08:55:35;;;;;;;16.33;9.52;;;-2.30;99.90;;;;;;4972599;28;20208;-66
2022/12/12 08:58:02;;;;;;;11.18;7.60;;;-2.30;99.90;;;;;;4972554;28;20228;-66
2022/12/12 09:00:29;;;;;;;21.33;10.90;;;-2.20;99.90;;;;;;4973781;28;20204;-66
2022/12/12 09:02:56;;;;;;;13.68;7.50;;;-2.10;99.90;;;;;;4973029;28;20211;-66
2022/12/12 09:05:22;;;;;;;17.05;9.20;;;-2.10;99.90;;;;;;4972768;28;20573;-67
2022/12/12 09:07:50;;;;;;;10.85;8.27;;;-1.90;99.90;;;;;;4973266;28;20224;-66
2022/12/12 09:10:22;;;;;;;12.68;7.65;;;-1.70;99.90;;;;;;4972934;28;20293;-66
2022/12/12 09:12:49;;;;;;;11.25;7.45;;;-1.80;99.90;;;;;;4973472;28;20235;-66
2022/12/12 09:15:16;;;;;;;16.20;8.93;;;-1.70;99.90;;;;;;4972431;28;20304;-66
2022/12/12 09:17:43;;;;;;;13.93;8.50;;;-1.70;99.90;;;;;;4972255;28;20232;-66
2022/12/12 09:20:10;;;;;;;11.65;6.80;;;-1.70;99.90;;;;;;4972451;28;20207;-66
2022/12/12 09:22:37;;;;;;;12.73;6.97;;;-1.80;99.90;;;;;;4972429;28;20219;-66
2022/12/12 09:25:09;;;;;;;13.57;8.65;;;-1.80;99.90;;;;;;4973526;28;20230;-66
2022/12/12 09:27:38;;;;;;;12.93;6.80;;;-1.60;99.90;;;;;;4972805;28;20223;-66
2022/12/12 09:30:05;;;;;;;13.90;7.97;;;-1.50;99.90;;;;;;4971984;28;20584;-67
2022/12/12 09:32:32;;;;;;;14.18;9.32;;;-1.40;99.90;;;;;;4972604;28;20208;-66
2022/12/12 09:35:00;;;;;;;11.35;7.43;;;-1.30;99.90;;;;;;4972313;28;20609;-66
2022/12/12 09:37:28;;;;;;;16.95;8.88;;;-1.20;99.90;;;;;;4972597;28;20599;-67
2022/12/12 09:39:57;;;;;;;14.48;7.70;;;-1.10;99.90;;;;;;4973274;28;20204;-68
2022/12/12 09:42:27;;;;;;;13.60;8.35;;;-1.00;99.90;;;;;;4973139;28;20221;-67
2022/12/12 09:45:00;;;;;;;14.32;7.68;;;-0.70;99.90;;;;;;4972718;28;20299;-66
2022/12/12 09:47:34;;;;;;;12.50;7.68;;;-0.90;99.90;;;;;;4972314;28;20224;-66
2022/12/12 09:50:06;;;;;;;10.40;7.70;;;-1.10;99.90;;;;;;4971529;28;20207;-66
2022/12/12 09:52:35;;;;;;;16.83;7.28;;;-1.00;99.90;;;;;;4971333;28;20203;-67
2022/12/12 09:55:12;;;;;;;16.40;8.60;;;-0.80;99.90;;;;;;4971615;28;20256;-66
2022/12/12 09:57:46;;;;;;;14.45;6.80;;;-0.90;99.90;;;;;;4971867;28;20401;-68
2022/12/12 10:00:15;;;;;;;11.80;7.95;;;-1.00;99.90;;;;;;4971799;28;20678;-67
2022/12/12 10:03:08;;;;;;;11.52;7.70;;;-1.00;99.90;;;;;;4973045;28;20659;-67
2022/12/12 10:05:42;;;;;;;10.35;7.43;;;-1.10;99.90;;;;;;4973938;28;20200;-67
2022/12/12 10:08:16;;;;;;;13.20;8.25;;;-1.30;99.90;;;;;;4972097;28;20267;-67
2022/12/12 10:10:46;;;;;;;19.10;8.32;;;-1.30;99.90;;;;;;4971826;28;20294;-67
2022/12/12 10:13:16;;;;;;;12.93;7.60;;;-1.50;99.90;;;;;;4972575;28;20210;-68
2022/12/12 10:15:47;;;;;;;12.13;8.02;;;-1.60;99.90;;;;;;4971620;28;20668;-67
2022/12/12 10:18:18;;;;;;;12.88;6.43;;;-1.80;99.90;;;;;;4970718;28;20706;-67
2022/12/12 10:20:49;;;;;;;12.30;7.90;;;-1.70;99.90;;;;;;4971344;28;20687;-67
2022/12/12 10:23:22;;;;;;;14.25;8.27;;;-1.70;99.90;;;;;;4971497;28;20398;-67
2022/12/12 10:25:54;;;;;;;14.70;7.40;;;-1.80;99.90;;;;;;4971781;28;20204;-67
2022/12/12 10:28:24;;;;;;;14.38;7.57;;;-1.80;99.90;;;;;;4971312;28;20215;-67
2022/12/12 10:31:16;;;;;;;17.45;8.32;;;-1.70;99.90;;;;;;4971314;28;20226;-68
2022/12/12 10:33:59;;;;;;;12.95;6.97;;;-1.60;99.90;;;;;;4962138;28;20204;-67
2022/12/12 10:36:41;;;;;;;10.57;6.70;;;-1.50;99.90;;;;;;4971846;28;20204;-67
2022/12/12 10:39:16;;;;;;;12.90;8.30;;;-1.30;99.90;;;;;;4971092;28;20234;-66
2022/12/12 10:41:47;;;;;;;13.20;8.23;;;-1.10;99.90;;;;;;4971589;28;20227;-67
2022/12/12 10:44:25;;;;;;;18.25;8.45;;;-0.70;99.90;;;;;;4971575;28;20209;-66
2022/12/12 10:46:59;;;;;;;14.77;7.85;;;-0.40;99.90;;;;;;4972123;28;20220;-67
2022/12/12 10:49:26;;;;;;;12.52;7.55;;;0.10;99.90;;;;;;4971512;28;20203;-66
2022/12/12 10:51:55;;;;;;;12.73;6.75;;;0.40;99.90;;;;;;4971229;28;20576;-67
2022/12/12 10:54:25;;;;;;;11.30;7.15;;;0.60;99.90;;;;;;4970990;28;20228;-67
2022/12/12 10:57:06;;;;;;;9.88;6.60;;;0.70;99.90;;;;;;4971710;28;20257;-67
2022/12/12 10:59:39;;;;;;;8.27;6.60;;;0.70;99.90;;;;;;4972812;28;20204;-67
2022/12/12 11:02:27;;;;;;;12.38;6.30;;;1.30;99.90;;;;;;4970731;28;20211;-66
2022/12/12 11:05:06;;;;;;;10.52;7.15;;;2.50;99.90;;;;;;4971775;28;20208;-67
2022/12/12 11:07:37;;;;;;;11.57;6.57;;;3.60;99.90;;;;;;4971904;28;20226;-66
2022/12/12 11:10:24;;;;;;;14.38;8.18;;;4.00;99.90;;;;;;4971890;28;20230;-66
2022/12/12 11:12:59;;;;;;;15.20;9.00;;;4.20;99.90;;;;;;4971907;28;20215;-66
2022/12/12 11:15:30;;;;;;;10.30;6.80;;;5.00;99.90;;;;;;4971333;28;20211;-66
2022/12/12 11:17:59;;;;;;;12.52;7.32;;;6.80;99.90;;;;;;4970986;28;20247;-66
2022/12/12 11:20:26;;;;;;;7.50;6.32;;;7.90;99.90;;;;;;4972525;28;20215;-66
2022/12/12 11:22:56;;;;;;;13.35;7.32;;;8.70;98.60;;;;;;4974810;28;20215;-66
2022/12/12 11:25:26;;;;;;;9.18;7.35;;;10.10;96.30;;;;;;4974327;28;20208;-67
2022/12/12 11:27:54;;;;;;;9.23;7.25;;;10.00;95.00;;;;;;4974738;28;20220;-66
2022/12/12 11:30:24;;;;;;;11.40;7.35;;;9.80;94.60;;;;;;4973329;28;20548;-65
2022/12/12 11:32:54;;;;;;;9.88;6.97;;;9.40;93.80;;;;;;4974658;28;20211;-66
2022/12/12 11:35:27;;;;;;;11.70;6.60;;;9.10;94.30;;;;;;4974081;28;20213;-66
2022/12/12 11:37:57;;;;;;;8.73;5.50;;;9.00;94.00;;;;;;4973907;28;20228;-66
2022/12/12 11:40:27;;;;;;;7.63;6.07;;;8.30;93.50;;;;;;4972841;28;20203;-67
2022/12/12 11:43:07;;;;;;;7.18;5.50;;;7.40;94.00;;;;;;4973755;28;20637;-66
2022/12/12 11:45:34;;;;;;;7.13;5.05;;;6.90;95.20;;;;;;4974231;28;20204;-66
2022/12/12 11:48:01;;;;;;;6.68;5.10;;;7.20;95.30;;;;;;4973567;28;20264;-65
2022/12/12 11:50:30;;;;;;;7.97;4.95;;;7.10;94.60;;;;;;4973252;28;20610;-65
2022/12/12 11:53:00;;;;;;;6.40;4.70;;;6.70;93.70;;;;;;4974053;28;20210;-66
2022/12/12 11:55:49;;;;;;;6.55;5.03;;;6.40;94.50;;;;;;4973104;28;20601;-66
2022/12/12 11:58:22;;;;;;;10.88;5.15;;;6.40;94.70;;;;;;4973232;28;20240;-66
2022/12/12 12:00:56;;;;;;;4.78;4.22;;;6.70;94.10;;;;;;4972878;28;20212;-66
2022/12/12 12:03:31;;;;;;;7.68;5.00;;;6.70;94.10;;;;;;4973509;28;20213;-66
2022/12/12 12:06:22;;;;;;;7.60;4.85;;;7.10;94.50;;;;;;4973238;28;20378;-66
2022/12/12 12:09:18;;;;;;;6.55;4.40;;;7.50;93.90;;;;;;4970052;28;20528;-65
2022/12/12 12:11:54;;;;;;;9.10;5.43;;;7.60;93.30;;;;;;4972765;28;20206;-65
2022/12/12 12:14:39;;;;;;;5.18;3.70;;;6.50;93.80;;;;;;4974440;28;20210;-66
2022/12/12 12:17:14;;;;;;;4.57;3.45;;;5.80;94.10;;;;;;4973232;28;20227;-66
2022/12/12 12:19:48;;;;;;;6.60;4.65;;;5.30;94.80;;;;;;4972951;28;20259;-69
2022/12/12 12:22:29;;;;;;;6.20;3.70;;;4.70;95.60;;;;;;4972776;28;20616;-67
2022/12/12 12:25:23;;;;;;;5.57;3.38;;;4.30;95.90;;;;;;4973195;28;20672;-66
2022/12/12 12:28:02;;;;;;;4.22;3.83;;;4.40;95.60;;;;;;4944431;28;20223;-67
2022/12/12 12:30:34;;;;;;;5.60;4.22;;;4.70;95.50;;;;;;4973291;28;20207;-67
2022/12/12 12:33:27;;;;;;;5.25;3.65;;;4.60;95.40;;;;;;4969326;28;20213;-66
2022/12/12 12:36:09;;;;;;;5.18;3.40;;;4.70;95.10;;;;;;4960337;28;20232;-67
2022/12/12 12:38:51;;;;;;;3.35;2.75;;;4.80;95.20;;;;;;4973203;28;20259;-67
2022/12/12 12:41:33;;;;;;;5.10;3.80;;;5.10;95.10;;;;;;5015404;23;20238;-93
2022/12/12 12:44:15;;;;;;;5.35;3.53;;;5.20;95.30;;;;;;5010664;28;20203;-93
2022/12/12 12:47:06;;;;;;;3.05;2.65;;;5.20;94.90;;;;;;5018835;28;20203;-92
2022/12/12 12:49:38;;;;;;;3.30;2.72;;;5.00;94.80;;;;;;5019046;28;20210;-92
2022/12/12 12:52:11;;;;;;;4.03;3.03;;;4.90;94.50;;;;;;5018952;28;20251;-92
2022/12/12 12:54:40;;;;;;;3.92;2.38;;;4.90;94.60;;;;;;5019051;28;20184;-92
2022/12/12 12:57:11;;;;;;;3.95;2.80;;;5.00;94.30;;;;;;5015108;28;20179;-92
2022/12/12 12:59:41;;;;;;;2.95;2.55;;;4.80;93.70;;;;;;4979870;28;20296;-92
2022/12/12 13:02:19;;;;;;;2.55;2.17;;;4.60;94.30;;;;;;4979159;28;20201;-91
2022/12/12 13:04:50;;;;;;;3.78;3.00;;;4.40;94.90;;;;;;4984601;28;20301;-93
2022/12/12 13:07:26;;;;;;;2.95;1.80;;;4.30;94.40;;;;;;4997462;28;20242;-93
2022/12/12 13:10:00;;;;;;;3.30;2.45;;;4.30;94.90;;;;;;4998697;28;20203;-93
2022/12/12 13:12:31;;;;;;;4.53;2.95;;;4.30;94.40;;;;;;4998894;28;20260;-93
2022/12/12 13:15:12;;;;;;;4.18;1.65;;;4.70;93.90;;;;;;4998743;28;20184;-90
2022/12/12 13:17:47;;;;;;;2.30;2.03;;;5.40;94.10;;;;;;4998871;28;20207;-91